Time;durP1;ratioP1;P1;durP2;ratioP2;P2;SDS_P1;SDS_P2;PMS_P1;PMS_P2;Temp;Humidity;BMP_temperature;BMP_pressure;BME280_temperature;BME280_humidity;BME280_pressure;Samples;Min_cycle;Max_cycle;Signal;HPM_P1;HPM_P2
2023/03/22 00:00:44;;;;;;;3.72;2.00;;;12.00;87.30;;;;;;5033554;28;20025;-82
2023/03/22 00:03:09;;;;;;;3.75;1.88;;;12.00;87.30;;;;;;5033176;28;20359;-81
2023/03/22 00:05:35;;;;;;;3.63;1.98;;;12.00;87.30;;;;;;5033267;28;20026;-82
2023/03/22 00:08:04;;;;;;;5.07;2.30;;;12.00;87.30;;;;;;5032121;28;20025;-82
2023/03/22 00:10:30;;;;;;;3.80;2.03;;;12.00;87.30;;;;;;5031857;28;20040;-82
2023/03/22 00:12:56;;;;;;;4.68;2.17;;;12.00;87.40;;;;;;5031739;28;20021;-82
2023/03/22 00:15:21;;;;;;;3.47;1.88;;;12.00;87.30;;;;;;5031654;28;20478;-82
2023/03/22 00:17:49;;;;;;;3.55;1.90;;;12.00;87.40;;;;;;5032216;28;20029;-82
2023/03/22 00:20:16;;;;;;;3.70;2.10;;;12.00;87.30;;;;;;5031866;28;20090;-81
2023/03/22 00:22:42;;;;;;;2.88;1.92;;;12.00;87.40;;;;;;5032029;28;20434;-82
2023/03/22 00:25:08;;;;;;;3.95;1.92;;;12.00;87.30;;;;;;5031484;28;20481;-82
2023/03/22 00:27:34;;;;;;;3.45;2.00;;;12.00;87.30;;;;;;5033271;28;20032;-82
2023/03/22 00:29:59;;;;;;;3.33;1.88;;;11.90;87.30;;;;;;5041000;28;20024;-83
2023/03/22 00:32:25;;;;;;;3.47;2.10;;;12.00;87.30;;;;;;5040020;28;20022;-83
2023/03/22 00:34:50;;;;;;;3.40;1.98;;;12.00;87.40;;;;;;5039689;28;20021;-83
2023/03/22 00:37:16;;;;;;;3.67;1.92;;;12.00;87.30;;;;;;5039005;28;20084;-83
2023/03/22 00:39:42;;;;;;;3.47;1.98;;;12.00;87.40;;;;;;5038951;28;20033;-83
2023/03/22 00:42:08;;;;;;;3.92;2.20;;;12.00;87.30;;;;;;5038319;28;20022;-83
2023/03/22 00:44:34;;;;;;;4.03;2.20;;;12.00;87.30;;;;;;5038799;28;20026;-82
2023/03/22 00:46:59;;;;;;;3.38;1.83;;;12.00;87.30;;;;;;5039392;28;20043;-82
2023/03/22 00:49:26;;;;;;;5.80;2.28;;;12.00;87.40;;;;;;5039502;28;20478;-83
2023/03/22 00:51:52;;;;;;;4.32;2.40;;;12.00;87.30;;;;;;5037383;28;20042;-82
2023/03/22 00:54:17;;;;;;;3.97;2.20;;;12.00;87.40;;;;;;5031414;28;20474;-82
2023/03/22 00:56:48;;;;;;;4.93;2.13;;;12.00;87.40;;;;;;5037599;28;20032;-83
2023/03/22 00:59:15;;;;;;;3.75;2.10;;;12.00;87.40;;;;;;5037410;28;20021;-82
2023/03/22 01:01:41;;;;;;;6.03;2.42;;;12.00;87.40;;;;;;5030954;28;20133;-82
2023/03/22 01:04:07;;;;;;;3.72;2.13;;;12.00;87.30;;;;;;5032042;28;20072;-82
2023/03/22 01:06:33;;;;;;;4.10;2.30;;;12.00;87.30;;;;;;5031860;28;20031;-82
2023/03/22 01:08:59;;;;;;;4.60;2.17;;;12.00;87.40;;;;;;5035571;28;20021;-82
2023/03/22 01:11:25;;;;;;;4.15;2.30;;;12.00;87.40;;;;;;5034907;28;20022;-82
2023/03/22 01:13:51;;;;;;;3.70;2.10;;;12.00;87.40;;;;;;5035589;28;20159;-82
2023/03/22 01:16:17;;;;;;;4.53;2.30;;;12.00;87.40;;;;;;5036579;28;20029;-82
2023/03/22 01:18:43;;;;;;;3.30;2.00;;;12.00;87.40;;;;;;5043444;28;20478;-83
2023/03/22 01:21:09;;;;;;;3.95;2.03;;;12.00;87.40;;;;;;5042774;28;20025;-83
2023/03/22 01:23:34;;;;;;;4.35;2.10;;;12.00;87.40;;;;;;5044180;28;20410;-83
2023/03/22 01:26:00;;;;;;;4.38;2.10;;;12.00;87.30;;;;;;5043220;28;20072;-83
2023/03/22 01:28:26;;;;;;;3.55;2.03;;;12.00;87.40;;;;;;5043253;28;20030;-83
2023/03/22 01:30:52;;;;;;;4.28;2.42;;;12.00;87.40;;;;;;5042282;28;20029;-83
2023/03/22 01:33:17;;;;;;;2.90;1.88;;;12.00;87.40;;;;;;5041454;28;20359;-82
2023/03/22 01:35:43;;;;;;;3.95;2.13;;;12.00;87.40;;;;;;5041499;28;20075;-83
2023/03/22 01:38:08;;;;;;;4.32;2.10;;;12.00;87.40;;;;;;5041420;28;20044;-82
2023/03/22 01:40:34;;;;;;;3.72;2.17;;;12.00;87.40;;;;;;5040969;28;20049;-82
2023/03/22 01:42:59;;;;;;;4.53;2.30;;;12.00;87.40;;;;;;5042283;28;20112;-83
2023/03/22 01:45:40;;;;;;;4.03;2.42;;;12.00;87.40;;;;;;5040065;28;20026;-83
2023/03/22 01:48:17;;;;;;;3.90;2.10;;;12.00;87.40;;;;;;5041575;28;20048;-83
2023/03/22 01:51:06;;;;;;;4.80;2.30;;;12.00;87.40;;;;;;5041163;28;20018;-83
2023/03/22 01:53:35;;;;;;;4.10;2.20;;;12.00;87.90;;;;;;5041330;28;20028;-82
2023/03/22 01:56:01;;;;;;;3.67;2.13;;;12.00;87.40;;;;;;5038858;28;20171;-82
2023/03/22 01:58:27;;;;;;;4.93;2.45;;;12.00;87.40;;;;;;5038546;28;20022;-82
2023/03/22 02:00:53;;;;;;;4.28;2.13;;;12.00;87.40;;;;;;5038759;28;20072;-82
2023/03/22 02:03:48;;;;;;;4.82;2.72;;;12.00;87.40;;;;;;5038496;28;20140;-82
2023/03/22 02:06:13;;;;;;;4.10;2.05;;;12.00;87.40;;;;;;5038128;28;20033;-82
2023/03/22 02:08:39;;;;;;;4.70;2.20;;;12.00;87.40;;;;;;5037837;28;20114;-83
2023/03/22 02:11:05;;;;;;;4.68;2.20;;;12.00;87.40;;;;;;5037367;28;20022;-82
2023/03/22 02:14:13;;;;;;;3.45;2.05;;;12.00;87.50;;;;;;5039551;28;20021;-83
2023/03/22 02:17:16;;;;;;;3.47;2.05;;;12.00;87.50;;;;;;5036138;28;20120;-82
2023/03/22 02:20:19;;;;;;;4.53;2.50;;;12.00;87.50;;;;;;5034023;28;20029;-82
2023/03/22 02:22:45;;;;;;;4.05;2.13;;;12.00;87.50;;;;;;5037780;28;20029;-82
2023/03/22 02:25:40;;;;;;;4.57;2.45;;;12.00;87.40;;;;;;5038572;28;20075;-82
2023/03/22 02:28:20;;;;;;;4.25;2.20;;;12.00;87.40;;;;;;5035533;28;20029;-82
2023/03/22 02:31:26;;;;;;;4.50;2.40;;;11.90;87.40;;;;;;5033726;28;20030;-82
2023/03/22 02:34:23;;;;;;;3.72;2.35;;;12.00;87.40;;;;;;5035468;28;20371;-82
2023/03/22 02:37:06;;;;;;;3.80;2.05;;;12.00;87.40;;;;;;5034132;28;20041;-81
2023/03/22 02:39:53;;;;;;;4.07;2.20;;;12.00;87.50;;;;;;5033942;28;20021;-81
2023/03/22 02:42:36;;;;;;;3.63;2.10;;;12.00;87.50;;;;;;5034933;28;20577;-80
2023/03/22 02:45:12;;;;;;;4.30;2.30;;;12.00;87.50;;;;;;5035394;28;20087;-83
2023/03/22 02:47:48;;;;;;;3.72;2.10;;;11.90;87.40;;;;;;5035792;28;20069;-82
2023/03/22 02:50:28;;;;;;;4.60;2.30;;;12.00;87.40;;;;;;5033759;28;20018;-81
2023/03/22 02:53:23;;;;;;;4.07;2.30;;;12.00;87.50;;;;;;5033940;28;20021;-82
2023/03/22 02:56:01;;;;;;;4.40;2.58;;;12.00;87.50;;;;;;5034351;28;20041;-82
2023/03/22 02:58:44;;;;;;;5.45;2.60;;;12.00;87.50;;;;;;5032900;28;20087;-81
2023/03/22 03:01:16;;;;;;;5.63;2.78;;;12.00;87.70;;;;;;5034358;28;20048;-82
2023/03/22 03:03:46;;;;;;;5.43;2.60;;;12.00;87.50;;;;;;5035418;28;20025;-82
2023/03/22 03:06:17;;;;;;;4.35;2.42;;;12.00;87.40;;;;;;5034390;28;20108;-82
2023/03/22 03:08:45;;;;;;;4.47;2.50;;;12.00;87.50;;;;;;5033350;28;20025;-82
2023/03/22 03:11:11;;;;;;;3.65;2.03;;;12.00;87.40;;;;;;5032899;28;20379;-82
2023/03/22 03:13:37;;;;;;;4.45;2.33;;;12.00;87.50;;;;;;5033316;28;20029;-82
2023/03/22 03:16:06;;;;;;;4.10;2.25;;;11.90;87.40;;;;;;5032802;28;20029;-82
2023/03/22 03:18:45;;;;;;;4.00;2.13;;;12.00;87.40;;;;;;5033547;28;20398;-82
2023/03/22 03:21:33;;;;;;;4.97;2.60;;;11.90;87.40;;;;;;5034546;28;20026;-82
2023/03/22 03:24:10;;;;;;;4.68;2.45;;;12.00;87.50;;;;;;5033674;28;20083;-82
2023/03/22 03:27:16;;;;;;;3.90;2.20;;;12.00;87.40;;;;;;5032676;28;20047;-81
2023/03/22 03:29:59;;;;;;;4.63;2.50;;;12.00;87.50;;;;;;5032752;28;20386;-82
2023/03/22 03:32:30;;;;;;;4.03;2.20;;;12.00;87.50;;;;;;5033027;28;20482;-82
2023/03/22 03:35:05;;;;;;;4.43;2.33;;;12.00;87.50;;;;;;5033140;28;20028;-82
2023/03/22 03:37:49;;;;;;;4.13;2.30;;;12.00;87.50;;;;;;5032933;28;20120;-81
2023/03/22 03:40:26;;;;;;;4.35;2.30;;;12.00;87.40;;;;;;5033375;28;20021;-81
2023/03/22 03:42:54;;;;;;;4.65;2.40;;;12.00;87.50;;;;;;5027817;28;20022;-81
2023/03/22 03:45:22;;;;;;;3.95;2.20;;;12.00;87.50;;;;;;5033218;28;20068;-82
2023/03/22 03:47:55;;;;;;;3.85;2.15;;;12.00;87.50;;;;;;5033277;28;20018;-81
2023/03/22 03:50:22;;;;;;;4.60;2.40;;;12.00;87.50;;;;;;5033252;28;20064;-82
2023/03/22 03:52:48;;;;;;;4.05;2.20;;;12.00;87.50;;;;;;5032245;28;20025;-82
2023/03/22 03:55:14;;;;;;;4.20;2.15;;;12.00;87.50;;;;;;5041927;28;20059;-83
2023/03/22 03:57:39;;;;;;;4.82;2.58;;;12.00;87.50;;;;;;5040244;28;20055;-83
2023/03/22 04:00:06;;;;;;;4.57;2.60;;;11.90;87.50;;;;;;5040238;28;20101;-81
2023/03/22 04:02:31;;;;;;;4.05;2.25;;;12.00;87.50;;;;;;5059770;22;20099;-82
2023/03/22 04:04:57;;;;;;;4.25;2.22;;;12.00;87.50;;;;;;5011518;28;20510;-82
2023/03/22 04:07:23;;;;;;;4.75;2.42;;;12.00;87.50;;;;;;5011526;28;20057;-82
2023/03/22 04:09:48;;;;;;;3.85;2.25;;;12.00;87.50;;;;;;5011631;28;20026;-83
2023/03/22 04:12:14;;;;;;;4.55;2.33;;;12.00;87.50;;;;;;5011418;28;20137;-82
2023/03/22 04:14:40;;;;;;;4.47;2.47;;;12.00;87.50;;;;;;5011484;28;20021;-81
2023/03/22 04:17:06;;;;;;;4.93;2.55;;;11.90;87.50;;;;;;5011652;28;20018;-83
2023/03/22 04:19:31;;;;;;;4.53;2.38;;;12.00;87.50;;;;;;5011398;28;20109;-83
2023/03/22 04:21:57;;;;;;;5.45;2.47;;;12.00;87.50;;;;;;5011203;28;20041;-82
2023/03/22 04:24:23;;;;;;;4.90;2.63;;;12.00;87.50;;;;;;5011336;28;20486;-82
2023/03/22 04:26:48;;;;;;;4.20;2.25;;;12.00;87.50;;;;;;5006423;28;20057;-82
2023/03/22 04:29:14;;;;;;;4.45;2.40;;;12.00;87.50;;;;;;5006132;28;20026;-81
2023/03/22 04:31:40;;;;;;;3.90;2.22;;;12.00;87.50;;;;;;5017967;28;20056;-84
2023/03/22 08:36:24;;;;;;;5.18;2.50;;;12.40;85.90;;;;;;4958494;28;20024;-82
2023/03/22 08:42:53;;;;;;;6.53;2.63;;;12.50;85.60;;;;;;4921232;29;20090;-81
2023/03/22 08:45:46;;;;;;;6.57;2.30;;;12.50;85.60;;;;;;4886961;29;20033;-82
2023/03/22 08:48:40;;;;;;;6.05;2.45;;;12.60;85.40;;;;;;4866683;29;20085;-81
2023/03/22 08:51:35;;;;;;;5.85;2.58;;;12.50;85.40;;;;;;4874799;29;20049;-82
2023/03/22 08:54:09;;;;;;;7.63;3.10;;;12.60;85.40;;;;;;4855256;29;20091;-81
2023/03/22 09:00:10;;;;;;;6.50;2.55;;;12.60;85.30;;;;;;4901982;29;20020;-81
2023/03/22 09:06:47;;;;;;;5.40;2.30;;;12.60;85.40;;;;;;4940649;29;20138;-81
2023/03/22 09:10:10;;;;;;;7.53;2.75;;;12.60;85.40;;;;;;4940452;28;20039;-81
2023/03/22 09:16:24;;;;;;;6.47;2.85;;;12.60;85.40;;;;;;4941075;29;20040;-81
2023/03/22 09:19:34;;;;;;;7.65;2.80;;;12.60;85.40;;;;;;4883925;29;20021;-80
2023/03/22 09:22:35;;;;;;;5.82;2.33;;;12.50;85.40;;;;;;4904367;29;20020;-81
2023/03/22 09:25:23;;;;;;;;;;;12.70;85.50;;;;;;4905133;29;20021;-82
2023/03/22 09:28:19;;;;;;;4.90;2.30;;;12.60;85.40;;;;;;4883778;29;19904;-82
2023/03/22 09:31:47;;;;;;;6.00;2.60;;;12.60;85.50;;;;;;4876120;29;20024;-81
2023/03/22 10:03:00;;;;;;;4.55;2.28;;;12.60;85.60;;;;;;5949752;23;20729;-81
2023/03/22 10:05:37;;;;;;;4.50;2.30;;;12.60;85.60;;;;;;4936447;29;20413;-82
2023/03/22 10:08:26;;;;;;;4.65;2.10;;;12.60;85.50;;;;;;4936616;29;20078;-82
2023/03/22 10:10:52;;;;;;;4.45;2.35;;;12.70;85.40;;;;;;4936084;29;20079;-82
2023/03/22 10:13:44;;;;;;;4.32;2.05;;;12.60;85.40;;;;;;4937312;29;20020;-82
2023/03/22 10:16:15;;;;;;;4.30;2.10;;;12.60;85.30;;;;;;4936628;29;20115;-82
2023/03/22 10:18:46;;;;;;;4.10;2.05;;;12.70;85.40;;;;;;4937560;29;20027;-82
2023/03/22 10:21:13;;;;;;;4.20;2.20;;;12.60;85.40;;;;;;4935872;29;20023;-82
2023/03/22 10:23:48;;;;;;;4.07;1.98;;;12.60;85.40;;;;;;4936778;29;20302;-82
2023/03/22 10:26:21;;;;;;;4.40;1.95;;;12.70;85.40;;;;;;4938126;29;20060;-82
2023/03/22 10:28:55;;;;;;;4.20;2.08;;;12.70;85.40;;;;;;4938150;29;20141;-82
2023/03/22 10:31:22;;;;;;;4.25;2.10;;;12.70;85.40;;;;;;4935731;29;20366;-82
2023/03/22 10:33:52;;;;;;;3.67;2.03;;;12.70;85.40;;;;;;4937512;29;20445;-82
2023/03/22 10:36:22;;;;;;;4.45;2.30;;;12.70;85.20;;;;;;4937555;29;20028;-82
2023/03/22 10:38:53;;;;;;;3.15;1.70;;;12.70;85.10;;;;;;4935921;29;20028;-82
2023/03/22 10:41:20;;;;;;;3.83;1.90;;;12.80;84.90;;;;;;4935994;29;20397;-82
2023/03/22 10:43:52;;;;;;;3.35;1.55;;;12.80;84.80;;;;;;4935523;29;20450;-83
2023/03/22 10:46:21;;;;;;;2.78;1.63;;;12.80;84.70;;;;;;4935617;29;20028;-83
2023/03/22 10:48:49;;;;;;;3.50;1.83;;;12.80;84.70;;;;;;4942782;29;20468;-83
2023/03/22 10:51:24;;;;;;;3.35;1.80;;;12.80;84.70;;;;;;4945030;29;20027;-83
2023/03/22 10:53:53;;;;;;;3.22;1.80;;;12.80;84.80;;;;;;4943790;29;20039;-83
2023/03/22 10:56:20;;;;;;;3.55;1.80;;;12.80;84.80;;;;;;4943089;29;20031;-82
2023/03/22 10:58:47;;;;;;;3.03;1.70;;;12.70;84.80;;;;;;4942652;29;20028;-83
2023/03/22 11:01:15;;;;;;;5.55;2.10;;;12.70;84.90;;;;;;4943662;29;20090;-83
2023/03/22 11:03:42;;;;;;;3.30;1.73;;;12.80;84.90;;;;;;4943499;29;20032;-83
2023/03/22 11:06:13;;;;;;;4.75;1.90;;;12.80;84.90;;;;;;4942567;29;20461;-83
2023/03/22 11:08:51;;;;;;;4.65;2.03;;;12.80;84.90;;;;;;4942080;29;20024;-83
2023/03/22 11:11:25;;;;;;;4.03;1.98;;;12.80;84.90;;;;;;4941326;29;20032;-83
2023/03/22 11:13:54;;;;;;;3.03;1.73;;;12.80;84.80;;;;;;4942321;29;20074;-83
2023/03/22 11:16:20;;;;;;;3.88;1.60;;;12.80;84.70;;;;;;4940899;29;20127;-83
2023/03/22 11:18:46;;;;;;;3.45;1.63;;;12.90;84.60;;;;;;4940836;29;20485;-82
2023/03/22 11:21:15;;;;;;;3.80;1.92;;;12.90;84.50;;;;;;4940883;29;20075;-83
2023/03/22 11:23:49;;;;;;;2.40;1.55;;;13.00;84.40;;;;;;4940734;29;20035;-83
2023/03/22 11:26:25;;;;;;;5.22;1.83;;;13.00;84.30;;;;;;4941486;29;20118;-83
2023/03/22 11:28:50;;;;;;;3.13;1.65;;;13.00;84.30;;;;;;4939587;29;20027;-82
2023/03/22 11:31:18;;;;;;;3.15;1.50;;;13.00;84.30;;;;;;4939180;29;20024;-83
2023/03/22 11:33:57;;;;;;;3.55;1.73;;;13.00;84.40;;;;;;4940604;29;20600;-83
2023/03/22 11:36:24;;;;;;;3.17;1.55;;;12.90;84.40;;;;;;4939336;29;20122;-83
2023/03/22 11:39:00;;;;;;;2.97;1.50;;;12.90;84.50;;;;;;4940738;29;20031;-84
2023/03/22 11:41:28;;;;;;;2.50;1.45;;;12.90;84.50;;;;;;4943069;29;20079;-83
2023/03/22 11:44:14;;;;;;;1.83;1.30;;;12.90;84.60;;;;;;4937807;29;20038;-83
2023/03/22 11:46:48;;;;;;;3.78;1.65;;;12.90;84.60;;;;;;4940953;29;20062;-83
2023/03/22 11:49:16;;;;;;;3.17;1.55;;;12.90;84.50;;;;;;4942127;29;20039;-83
2023/03/22 11:51:43;;;;;;;3.47;1.60;;;12.90;84.50;;;;;;4941332;29;20036;-83
2023/03/22 11:54:23;;;;;;;2.78;1.60;;;13.00;84.50;;;;;;4935559;29;20028;-83
2023/03/22 11:56:49;;;;;;;3.63;1.60;;;13.00;84.50;;;;;;4939750;29;20038;-83
2023/03/22 11:59:27;;;;;;;3.50;1.50;;;13.00;84.40;;;;;;4940280;29;20035;-82
2023/03/22 12:02:19;;;;;;;3.08;1.58;;;13.00;84.40;;;;;;4941630;29;20027;-83
2023/03/22 12:04:46;;;;;;;3.80;1.50;;;13.00;84.40;;;;;;4940250;29;20036;-83
2023/03/22 12:07:19;;;;;;;3.22;1.60;;;12.90;84.40;;;;;;4940002;29;20118;-83
2023/03/22 12:10:02;;;;;;;4.20;1.65;;;13.00;84.40;;;;;;4941178;29;20020;-83
2023/03/22 12:12:33;;;;;;;3.67;1.40;;;12.90;84.50;;;;;;4939278;29;20028;-82
2023/03/22 12:15:11;;;;;;;2.47;1.33;;;12.90;84.50;;;;;;4938922;29;20039;-83
2023/03/22 12:17:40;;;;;;;2.70;1.40;;;12.90;84.60;;;;;;4939094;29;20369;-83
2023/03/22 12:20:32;;;;;;;2.80;1.40;;;12.90;84.60;;;;;;4938705;29;20571;-82
2023/03/22 12:22:59;;;;;;;3.85;1.80;;;12.90;84.60;;;;;;4940376;29;20524;-82
2023/03/22 12:25:30;;;;;;;2.97;1.45;;;12.90;84.70;;;;;;4938010;29;20477;-82
2023/03/22 12:28:02;;;;;;;2.53;1.33;;;12.90;84.70;;;;;;4935126;29;20024;-83
2023/03/22 12:30:32;;;;;;;4.07;1.60;;;12.90;84.70;;;;;;4936762;29;20016;-83
2023/03/22 12:33:36;;;;;;;3.17;1.42;;;12.90;84.70;;;;;;4937700;29;20512;-82
2023/03/22 12:36:04;;;;;;;3.40;1.52;;;12.80;84.70;;;;;;4933715;29;20428;-83
2023/03/22 12:38:45;;;;;;;2.60;1.60;;;12.90;84.80;;;;;;4935280;29;20144;-82
2023/03/22 12:41:15;;;;;;;2.90;1.50;;;12.80;84.80;;;;;;4935126;29;20036;-82
2023/03/22 12:43:51;;;;;;;3.08;1.52;;;12.80;84.80;;;;;;4934283;29;20032;-82
2023/03/22 12:46:20;;;;;;;2.05;1.20;;;12.80;84.90;;;;;;4934746;29;20536;-82
2023/03/22 12:49:01;;;;;;;2.70;1.60;;;12.80;84.90;;;;;;4937532;29;20095;-82
2023/03/22 12:51:27;;;;;;;2.50;1.40;;;12.80;85.00;;;;;;4936181;29;20449;-82
2023/03/22 12:53:55;;;;;;;2.20;1.30;;;12.80;85.00;;;;;;4937986;29;20051;-82
2023/03/22 12:56:25;;;;;;;2.78;1.30;;;12.80;85.10;;;;;;4936053;29;20058;-82
2023/03/22 12:59:00;;;;;;;2.67;1.55;;;12.80;85.10;;;;;;4935674;29;20451;-80
2023/03/22 13:01:45;;;;;;;3.60;1.70;;;12.80;85.10;;;;;;4935773;29;20115;-82
2023/03/22 13:04:30;;;;;;;2.20;1.40;;;12.70;85.10;;;;;;4939488;29;20050;-83
2023/03/22 13:07:08;;;;;;;2.90;1.40;;;12.80;85.70;;;;;;4941069;29;20047;-82
2023/03/22 13:09:39;;;;;;;2.65;1.40;;;12.70;85.20;;;;;;4942637;29;20023;-81
2023/03/22 13:12:16;;;;;;;2.20;1.38;;;12.70;85.20;;;;;;4938845;29;20054;-82
2023/03/22 13:14:51;;;;;;;2.85;1.50;;;12.70;85.40;;;;;;4939633;29;20023;-82
2023/03/22 13:17:22;;;;;;;2.70;1.38;;;12.70;85.30;;;;;;4940585;29;20552;-83
2023/03/22 13:20:06;;;;;;;3.17;1.40;;;12.70;85.30;;;;;;4939516;29;20032;-81
2023/03/22 13:22:35;;;;;;;2.33;1.50;;;12.70;85.30;;;;;;4937650;29;20068;-82
2023/03/22 13:25:11;;;;;;;3.45;1.40;;;12.70;85.40;;;;;;4937848;29;20032;-81
2023/03/22 13:27:42;;;;;;;4.85;1.30;;;12.70;85.90;;;;;;4937548;29;20055;-83
2023/03/22 13:30:22;;;;;;;3.28;1.38;;;12.70;85.40;;;;;;4937870;29;20024;-82
2023/03/22 13:32:55;;;;;;;2.70;1.30;;;12.70;85.90;;;;;;4938940;29;20043;-82
2023/03/22 13:35:26;;;;;;;4.10;1.50;;;12.70;85.40;;;;;;4938764;29;20038;-82
2023/03/22 13:37:54;;;;;;;3.35;1.50;;;12.70;85.40;;;;;;4938690;29;20028;-82
2023/03/22 13:40:28;;;;;;;3.60;1.45;;;12.70;85.50;;;;;;4939074;29;20032;-82
2023/03/22 13:43:09;;;;;;;2.05;1.30;;;12.70;85.50;;;;;;4937478;29;20031;-84
2023/03/22 13:45:35;;;;;;;2.72;1.30;;;12.70;85.50;;;;;;4937648;29;20027;-84
2023/03/22 13:48:26;;;;;;;3.30;1.40;;;12.70;85.60;;;;;;4938805;29;20111;-84
2023/03/22 13:50:52;;;;;;;4.28;1.50;;;12.70;85.50;;;;;;4936419;29;20028;-83
2023/03/22 13:53:29;;;;;;;2.17;1.30;;;12.70;85.50;;;;;;4936263;29;20035;-83
2023/03/22 13:55:55;;;;;;;2.95;1.30;;;12.70;85.50;;;;;;4934836;29;20497;-83
2023/03/22 13:58:49;;;;;;;3.17;1.50;;;12.70;86.00;;;;;;4936820;29;20075;-83
2023/03/22 14:01:20;;;;;;;4.03;1.40;;;12.70;85.50;;;;;;4936464;29;20031;-83
2023/03/22 14:03:49;;;;;;;2.80;1.23;;;12.70;86.00;;;;;;4937893;29;20037;-83
2023/03/22 14:06:24;;;;;;;3.28;1.33;;;12.70;85.60;;;;;;4936213;29;20032;-83
2023/03/22 14:08:55;;;;;;;2.65;1.50;;;12.70;85.60;;;;;;4936322;29;20031;-83
2023/03/22 14:11:38;;;;;;;2.15;1.30;;;12.70;85.60;;;;;;4937590;29;20068;-83
2023/03/22 14:14:26;;;;;;;2.55;1.30;;;12.60;85.50;;;;;;4935270;29;20040;-83
2023/03/22 14:17:04;;;;;;;2.40;1.20;;;12.60;85.60;;;;;;4938160;29;20030;-84
2023/03/22 14:19:33;;;;;;;3.13;1.10;;;12.60;85.60;;;;;;4945178;29;20038;-84
2023/03/22 14:22:03;;;;;;;3.58;1.30;;;12.60;85.60;;;;;;4943444;29;20459;-84
2023/03/22 14:24:35;;;;;;;2.65;1.20;;;12.60;85.70;;;;;;4942345;29;20028;-84
2023/03/22 14:27:00;;;;;;;3.63;1.38;;;12.60;85.70;;;;;;4942254;29;20044;-84
2023/03/22 14:29:40;;;;;;;2.60;1.30;;;12.60;85.70;;;;;;4941936;29;20024;-84
2023/03/22 14:32:13;;;;;;;1.90;1.00;;;12.60;85.70;;;;;;4940946;29;20027;-83
2023/03/22 14:34:40;;;;;;;2.95;1.27;;;12.60;85.70;;;;;;4940271;29;20023;-83
2023/03/22 14:37:11;;;;;;;3.63;1.17;;;12.60;85.70;;;;;;4936816;29;20027;-82
2023/03/22 14:39:40;;;;;;;2.20;1.33;;;12.60;85.70;;;;;;4940797;29;20374;-84
2023/03/22 14:42:07;;;;;;;2.97;1.27;;;12.60;85.70;;;;;;4941143;29;20054;-84
2023/03/22 14:44:41;;;;;;;4.03;1.20;;;12.60;85.70;;;;;;4939771;29;20032;-83
2023/03/22 14:47:15;;;;;;;2.15;1.20;;;12.60;85.70;;;;;;4940467;29;20050;-83
2023/03/22 14:49:43;;;;;;;1.75;1.05;;;12.60;85.80;;;;;;4939792;29;20059;-83
2023/03/22 14:52:24;;;;;;;1.90;1.20;;;12.60;85.80;;;;;;4939257;29;20130;-83
2023/03/22 14:54:58;;;;;;;1.95;1.20;;;12.60;85.80;;;;;;4939357;29;20051;-83
2023/03/22 14:57:25;;;;;;;2.20;1.20;;;12.60;85.80;;;;;;4938862;29;20027;-83
2023/03/22 14:59:51;;;;;;;3.08;1.25;;;12.60;85.80;;;;;;4940189;29;20028;-84
2023/03/22 15:02:37;;;;;;;2.80;1.33;;;12.60;85.80;;;;;;4940009;29;20042;-85
2023/03/22 15:05:08;;;;;;;2.15;1.30;;;12.60;85.80;;;;;;4939107;29;20103;-83
2023/03/22 15:07:46;;;;;;;2.63;1.30;;;12.60;85.90;;;;;;4938214;29;20036;-83
2023/03/22 15:10:17;;;;;;;3.15;1.30;;;12.60;86.00;;;;;;4942958;29;20504;-82
2023/03/22 15:12:44;;;;;;;;;;;12.60;86.00;;;;;;4942918;29;20031;-83
2023/03/22 15:15:10;;;;;;;3.47;1.40;;;12.60;86.00;;;;;;4940783;29;19915;-83
2023/03/22 15:17:37;;;;;;;3.20;1.38;;;12.60;86.10;;;;;;4941692;29;20465;-83
2023/03/22 15:20:05;;;;;;;2.40;1.30;;;12.60;86.10;;;;;;4941003;29;20424;-83
2023/03/22 15:22:30;;;;;;;2.97;1.30;;;12.60;86.10;;;;;;4939707;29;20043;-83
2023/03/22 15:25:02;;;;;;;2.88;1.20;;;12.60;86.10;;;;;;4939837;29;20477;-83
2023/03/22 15:27:29;;;;;;;3.30;1.42;;;12.50;86.10;;;;;;4937853;29;20036;-83
2023/03/22 15:29:55;;;;;;;3.08;1.27;;;12.60;86.80;;;;;;4939388;29;20028;-82
2023/03/22 15:32:22;;;;;;;2.50;1.30;;;12.60;86.20;;;;;;4934808;29;20487;-81
2023/03/22 15:34:51;;;;;;;3.00;1.30;;;12.60;86.20;;;;;;4938446;29;20118;-83
2023/03/22 15:37:28;;;;;;;5.22;1.73;;;12.50;86.20;;;;;;4938665;29;20055;-84
2023/03/22 15:39:55;;;;;;;2.80;1.33;;;12.50;86.20;;;;;;4939038;29;20107;-82
2023/03/22 15:42:29;;;;;;;2.72;1.40;;;12.50;86.30;;;;;;4935302;29;20028;-81
2023/03/22 15:45:01;;;;;;;2.97;1.50;;;12.50;86.20;;;;;;4937488;29;20039;-83
2023/03/22 15:47:45;;;;;;;3.50;1.50;;;12.50;86.20;;;;;;4936961;29;20054;-82
2023/03/22 15:50:11;;;;;;;6.32;1.40;;;12.50;86.30;;;;;;4934422;29;20024;-81
2023/03/22 15:52:49;;;;;;;6.65;1.70;;;12.50;86.30;;;;;;4939645;29;20051;-83
2023/03/22 15:55:17;;;;;;;4.85;1.40;;;12.50;86.20;;;;;;4938328;29;20324;-83
2023/03/22 15:57:51;;;;;;;3.35;1.30;;;12.60;86.20;;;;;;4937526;29;20028;-83
2023/03/22 16:00:30;;;;;;;6.60;1.50;;;12.60;86.10;;;;;;4938203;29;20066;-82
2023/03/22 16:03:05;;;;;;;3.53;1.20;;;12.60;85.90;;;;;;4938503;29;20047;-82
2023/03/22 16:05:31;;;;;;;3.78;1.27;;;12.60;85.80;;;;;;4950216;23;20051;-82
2023/03/22 16:07:58;;;;;;;3.38;1.30;;;12.60;85.80;;;;;;4934493;29;20075;-82
2023/03/22 16:10:25;;;;;;;6.90;1.65;;;12.60;85.80;;;;;;4933897;29;20111;-81
2023/03/22 16:12:51;;;;;;;6.45;1.60;;;12.70;85.80;;;;;;4934206;29;20458;-82
2023/03/22 16:15:20;;;;;;;4.22;1.20;;;12.70;85.80;;;;;;4934012;29;20122;-81
2023/03/22 16:17:46;;;;;;;5.00;1.40;;;12.70;85.80;;;;;;4933947;29;20028;-82
2023/03/22 16:20:13;;;;;;;4.05;1.23;;;12.80;85.80;;;;;;4933680;29;20028;-81
2023/03/22 16:22:40;;;;;;;3.55;1.20;;;12.80;85.90;;;;;;4933921;29;20408;-82
2023/03/22 16:25:06;;;;;;;8.23;1.80;;;12.80;85.90;;;;;;4933942;29;20082;-82
2023/03/22 16:27:32;;;;;;;3.00;1.27;;;12.90;86.00;;;;;;4933776;29;20089;-82
2023/03/22 16:29:57;;;;;;;5.15;1.10;;;12.80;86.00;;;;;;4933752;29;20052;-82
2023/03/22 16:32:25;;;;;;;4.03;1.40;;;13.00;86.10;;;;;;4933624;29;20564;-81
2023/03/22 16:34:50;;;;;;;3.65;1.30;;;13.00;86.00;;;;;;4933611;29;20032;-80
2023/03/22 16:37:19;;;;;;;2.13;1.10;;;13.00;85.90;;;;;;4933463;29;20035;-81
2023/03/22 16:39:45;;;;;;;4.07;1.40;;;13.00;86.10;;;;;;4933614;29;20036;-81
2023/03/22 16:42:17;;;;;;;3.90;1.17;;;13.00;86.20;;;;;;4933667;29;20035;-82
2023/03/22 16:44:44;;;;;;;6.00;1.40;;;13.00;86.30;;;;;;4933490;29;20428;-82
2023/03/22 16:47:18;;;;;;;5.45;1.58;;;13.00;86.20;;;;;;4933528;29;20032;-81
2023/03/22 16:49:44;;;;;;;4.40;1.30;;;13.00;86.40;;;;;;4933566;29;20058;-81
2023/03/22 16:52:20;;;;;;;1.90;1.00;;;13.00;86.40;;;;;;4933362;29;20024;-81
2023/03/22 16:54:48;;;;;;;2.53;1.15;;;13.00;86.40;;;;;;4933524;29;20082;-81
2023/03/22 16:57:15;;;;;;;3.65;1.30;;;13.00;86.70;;;;;;4933524;29;20032;-81
2023/03/22 16:59:41;;;;;;;6.00;1.30;;;12.90;86.50;;;;;;4933167;29;20032;-82
2023/03/22 17:02:14;;;;;;;6.43;1.58;;;13.00;87.30;;;;;;4933289;29;20028;-81
2023/03/22 17:04:40;;;;;;;4.95;1.48;;;13.10;87.30;;;;;;4933244;29;20036;-80
2023/03/22 17:07:12;;;;;;;6.68;1.48;;;13.10;86.90;;;;;;4934721;29;20115;-81
2023/03/22 17:09:38;;;;;;;6.88;1.40;;;13.10;86.70;;;;;;4930845;29;20028;-80
2023/03/22 17:12:03;;;;;;;6.38;1.67;;;13.10;86.50;;;;;;4935624;29;20082;-83
2023/03/22 17:14:29;;;;;;;3.78;1.30;;;13.00;86.50;;;;;;4935387;29;20675;-82
2023/03/22 17:16:54;;;;;;;3.25;1.40;;;13.10;86.50;;;;;;4934150;29;20028;-83
2023/03/22 17:19:20;;;;;;;3.40;1.20;;;13.10;86.50;;;;;;4933883;29;20051;-83
2023/03/22 17:21:45;;;;;;;5.05;1.10;;;13.10;86.50;;;;;;4933562;29;20031;-83
2023/03/22 17:24:11;;;;;;;5.30;1.38;;;13.00;86.40;;;;;;4934578;29;20114;-83
2023/03/22 17:26:36;;;;;;;5.72;1.40;;;13.00;86.40;;;;;;4936348;29;20067;-83
2023/03/22 17:29:02;;;;;;;3.83;1.30;;;13.00;86.50;;;;;;4936511;29;20031;-81
2023/03/22 17:31:27;;;;;;;5.57;1.40;;;13.00;86.40;;;;;;4936811;29;20019;-82
2023/03/22 17:33:53;;;;;;;6.18;1.48;;;13.00;86.40;;;;;;4935018;29;20102;-81
2023/03/22 17:36:18;;;;;;;4.60;1.20;;;13.00;86.40;;;;;;4935624;29;20095;-80
2023/03/22 17:38:44;;;;;;;5.90;1.17;;;13.10;86.40;;;;;;4936489;29;20107;-82
2023/03/22 17:41:13;;;;;;;4.13;1.35;;;13.00;86.50;;;;;;4936682;29;20027;-84
2023/03/22 17:46:20;;;;;;;2.78;1.05;;;12.90;86.40;;;;;;5527816;23;20050;-83
2023/03/22 18:43:24;;;;;;;7.75;1.48;;;12.70;86.70;;;;;;4978074;28;20047;-81
2023/03/22 18:45:52;;;;;;;5.68;1.35;;;12.70;86.70;;;;;;4981238;28;20035;-81
2023/03/22 18:48:18;;;;;;;4.65;1.35;;;12.60;86.80;;;;;;4980773;28;20019;-82
2023/03/22 18:50:44;;;;;;;4.00;1.30;;;12.60;86.90;;;;;;4980158;28;20015;-81
2023/03/22 18:53:14;;;;;;;5.00;1.40;;;12.70;86.90;;;;;;4980839;28;20026;-81
2023/03/22 18:55:44;;;;;;;3.55;1.30;;;12.60;87.00;;;;;;4980589;28;20012;-82
2023/03/22 18:58:22;;;;;;;5.75;1.30;;;12.60;86.90;;;;;;4980875;28;20015;-82